Time;durP1;ratioP1;P1;durP2;ratioP2;P2;SDS_P1;SDS_P2;PMS_P1;PMS_P2;Temp;Humidity;BMP_temperature;BMP_pressure;BME280_temperature;BME280_humidity;BME280_pressure;Samples;Min_cycle;Max_cycle;Signal;HPM_P1;HPM_P2
2021/08/04 00:01:25;;;;;;;3.50;2.10;;;18.00;99.90;;;;;;4974993;28;20522;-58
2021/08/04 00:03:50;;;;;;;2.03;1.93;;;18.20;99.90;;;;;;4975019;28;20252;-58
2021/08/04 00:06:16;;;;;;;2.50;1.83;;;18.10;99.90;;;;;;4974977;28;20165;-57
2021/08/04 00:08:42;;;;;;;2.20;2.00;;;18.10;99.90;;;;;;4975314;28;20257;-57
2021/08/04 00:11:08;;;;;;;2.80;2.00;;;17.80;99.90;;;;;;4974522;28;20598;-58
2021/08/04 00:13:33;;;;;;;3.17;2.63;;;17.90;99.90;;;;;;4974791;28;20178;-55
2021/08/04 00:15:59;;;;;;;3.90;1.77;;;17.90;99.90;;;;;;4974602;28;20471;-58
2021/08/04 00:18:25;;;;;;;2.67;2.30;;;18.00;99.90;;;;;;4974985;28;20291;-57
2021/08/04 00:20:50;;;;;;;2.40;2.17;;;18.00;99.90;;;;;;4974670;28;20189;-57
2021/08/04 00:23:16;;;;;;;2.33;2.13;;;17.80;99.90;;;;;;4975519;28;20248;-58
2021/08/04 00:25:42;;;;;;;2.27;2.17;;;17.80;99.90;;;;;;4974795;28;20173;-58
2021/08/04 00:28:07;;;;;;;2.60;1.97;;;17.90;99.90;;;;;;4974923;28;20177;-58
2021/08/04 00:30:33;;;;;;;2.87;2.57;;;17.80;99.90;;;;;;4974652;28;20203;-57
2021/08/04 00:32:59;;;;;;;2.40;1.87;;;17.90;99.90;;;;;;4974774;28;20598;-58
2021/08/04 00:35:25;;;;;;;1.73;1.63;;;17.90;99.90;;;;;;4974597;28;20551;-57
2021/08/04 00:37:50;;;;;;;2.40;2.20;;;18.00;99.90;;;;;;4974718;28;20560;-57
2021/08/04 00:40:16;;;;;;;1.70;1.60;;;17.90;99.90;;;;;;4974440;28;20444;-58
2021/08/04 00:42:42;;;;;;;4.47;2.60;;;17.90;99.90;;;;;;4973195;28;20181;-58
2021/08/04 00:45:09;;;;;;;3.07;2.70;;;17.90;99.90;;;;;;4974522;28;20650;-58
2021/08/04 00:47:35;;;;;;;5.90;2.33;;;17.80;99.90;;;;;;4974428;28;20496;-58
2021/08/04 00:50:02;;;;;;;3.77;2.33;;;17.90;99.90;;;;;;4974743;28;20455;-57
2021/08/04 00:52:28;;;;;;;3.07;2.00;;;17.90;99.90;;;;;;4974223;28;20428;-58
2021/08/04 00:54:53;;;;;;;2.20;1.93;;;17.80;99.90;;;;;;4974346;28;20401;-57
2021/08/04 00:57:19;;;;;;;4.73;2.40;;;17.70;99.90;;;;;;4973872;28;20178;-57
2021/08/04 00:59:45;;;;;;;3.07;2.00;;;17.70;99.90;;;;;;4974252;28;20552;-58
2021/08/04 01:02:17;;;;;;;1.80;1.70;;;17.80;99.90;;;;;;4974198;28;20605;-57
2021/08/04 01:04:50;;;;;;;3.10;1.93;;;17.60;99.90;;;;;;4978898;28;20916;-57
2021/08/04 01:07:25;;;;;;;2.30;2.10;;;17.70;99.90;;;;;;4987448;28;20411;-55
2021/08/04 01:10:01;;;;;;;1.93;1.83;;;17.80;99.90;;;;;;4993888;28;20848;-58
2021/08/04 01:13:00;;;;;;;3.70;2.30;;;17.80;99.90;;;;;;4977223;28;20462;-58
2021/08/04 01:15:31;;;;;;;2.50;2.10;;;17.80;99.90;;;;;;4973982;28;20922;-58
2021/08/04 01:17:59;;;;;;;2.70;1.90;;;17.80;99.90;;;;;;4974385;28;20459;-58
2021/08/04 01:20:27;;;;;;;2.80;2.20;;;17.80;99.90;;;;;;4974304;28;20408;-57
2021/08/04 01:22:56;;;;;;;3.37;2.07;;;17.80;99.90;;;;;;4974733;28;20902;-56
2021/08/04 01:25:28;;;;;;;2.97;2.10;;;17.80;99.90;;;;;;4974009;28;20443;-58
2021/08/04 01:28:20;;;;;;;4.30;2.17;;;17.80;99.90;;;;;;4977229;28;20479;-58
2021/08/04 01:30:49;;;;;;;2.43;2.17;;;17.90;99.90;;;;;;4977802;28;20425;-58
2021/08/04 01:33:16;;;;;;;3.60;2.20;;;17.90;99.90;;;;;;4978111;28;20412;-57
2021/08/04 01:35:43;;;;;;;3.00;2.33;;;17.90;99.90;;;;;;4977818;28;20404;-58
2021/08/04 01:38:12;;;;;;;2.53;2.33;;;17.90;99.90;;;;;;4977658;28;20792;-56
2021/08/04 01:40:40;;;;;;;2.53;1.83;;;17.90;99.90;;;;;;4977745;28;20504;-55
2021/08/04 01:43:06;;;;;;;2.27;2.07;;;17.90;99.90;;;;;;4977120;28;20412;-57
2021/08/04 01:45:33;;;;;;;2.63;2.07;;;17.80;99.90;;;;;;4977867;28;20412;-55
2021/08/04 01:47:59;;;;;;;2.33;2.10;;;17.70;99.90;;;;;;4977512;28;20412;-58
2021/08/04 01:50:24;;;;;;;2.20;1.93;;;17.70;99.90;;;;;;4978476;28;20416;-58
2021/08/04 01:52:52;;;;;;;2.60;1.70;;;17.60;99.90;;;;;;4977486;28;20970;-55
2021/08/04 01:55:17;;;;;;;3.80;2.00;;;17.60;99.90;;;;;;4977667;28;20447;-57
2021/08/04 01:57:43;;;;;;;2.47;2.27;;;17.60;99.90;;;;;;4976905;28;20476;-57
2021/08/04 02:00:09;;;;;;;2.40;1.83;;;17.70;99.90;;;;;;4977361;28;20169;-55
2021/08/04 02:02:35;;;;;;;2.77;2.40;;;17.70;99.90;;;;;;4977191;28;20189;-57
2021/08/04 02:05:00;;;;;;;3.40;2.17;;;17.70;99.90;;;;;;4977439;28;20905;-58
2021/08/04 02:07:52;;;;;;;2.40;2.13;;;17.80;99.90;;;;;;4977192;28;20250;-56
2021/08/04 02:10:46;;;;;;;2.50;1.83;;;17.90;99.90;;;;;;4977098;28;20182;-58
2021/08/04 02:13:36;;;;;;;2.37;2.00;;;18.00;99.90;;;;;;4976492;28;20424;-57
2021/08/04 02:16:09;;;;;;;2.10;1.90;;;18.00;99.90;;;;;;4977269;28;20398;-58
2021/08/04 02:18:37;;;;;;;2.80;2.33;;;17.90;99.90;;;;;;4977169;28;20562;-58
2021/08/04 02:21:03;;;;;;;2.20;2.00;;;17.80;99.90;;;;;;4976999;28;20425;-57
2021/08/04 02:23:37;;;;;;;2.23;2.07;;;17.90;99.90;;;;;;4977679;28;20496;-58
2021/08/04 02:26:15;;;;;;;2.20;2.00;;;17.80;99.90;;;;;;4977201;28;20382;-58
2021/08/04 02:28:43;;;;;;;2.80;2.00;;;17.80;99.90;;;;;;4976682;28;20393;-59
2021/08/04 02:31:13;;;;;;;1.73;1.63;;;17.80;99.90;;;;;;4977002;28;20428;-55
2021/08/04 02:33:39;;;;;;;4.80;2.37;;;17.80;99.90;;;;;;4977165;28;20416;-57
2021/08/04 02:36:05;;;;;;;2.03;1.90;;;17.70;99.90;;;;;;4976789;28;20482;-57
2021/08/04 02:38:32;;;;;;;4.30;2.17;;;17.80;99.90;;;;;;4976449;28;20471;-56
2021/08/04 02:40:58;;;;;;;2.23;2.03;;;17.90;99.90;;;;;;4976984;28;20488;-58
2021/08/04 02:43:25;;;;;;;3.40;2.00;;;17.90;99.90;;;;;;4976133;28;20413;-58
2021/08/04 02:45:52;;;;;;;2.20;2.00;;;17.80;99.90;;;;;;4976522;28;20944;-58
2021/08/04 02:48:19;;;;;;;3.43;2.33;;;17.80;99.90;;;;;;4976823;28;20412;-57
2021/08/04 02:50:51;;;;;;;2.40;2.20;;;17.80;99.90;;;;;;4976574;28;20440;-53
2021/08/04 02:53:18;;;;;;;2.20;2.00;;;17.80;99.90;;;;;;4976377;28;20405;-57
2021/08/04 02:55:44;;;;;;;2.90;2.43;;;17.80;99.90;;;;;;4976349;28;20836;-58
2021/08/04 02:58:12;;;;;;;2.30;2.03;;;17.70;99.90;;;;;;4975659;28;20953;-58
2021/08/04 03:00:38;;;;;;;2.23;2.03;;;17.60;99.90;;;;;;4976067;28;20942;-58
2021/08/04 03:03:04;;;;;;;2.07;1.87;;;17.60;99.90;;;;;;4976415;28;20412;-54
2021/08/04 03:05:30;;;;;;;2.50;2.30;;;17.50;99.90;;;;;;4976091;28;20501;-57
2021/08/04 03:07:56;;;;;;;2.77;2.10;;;17.50;99.90;;;;;;4976276;28;20447;-58
2021/08/04 03:10:21;;;;;;;3.90;2.57;;;17.40;99.90;;;;;;4976005;28;20537;-56
2021/08/04 03:12:47;;;;;;;2.40;2.20;;;17.30;99.90;;;;;;4975495;28;20181;-57
2021/08/04 03:15:12;;;;;;;4.20;2.80;;;17.30;99.90;;;;;;4975897;28;20185;-56
2021/08/04 03:17:38;;;;;;;2.50;2.30;;;17.30;99.90;;;;;;4975444;28;20268;-58
2021/08/04 03:20:05;;;;;;;2.80;2.40;;;17.40;99.90;;;;;;4975830;28;20181;-56
2021/08/04 03:22:30;;;;;;;2.67;1.97;;;17.40;99.90;;;;;;4975721;28;20296;-55
2021/08/04 03:24:56;;;;;;;2.93;2.03;;;17.50;99.90;;;;;;4975760;28;20470;-57
2021/08/04 03:27:21;;;;;;;3.23;2.33;;;17.40;99.90;;;;;;4975254;28;20172;-56
2021/08/04 03:29:47;;;;;;;2.47;2.27;;;17.40;99.90;;;;;;4975642;28;20256;-56
2021/08/04 03:32:13;;;;;;;3.47;2.70;;;17.30;99.90;;;;;;4975481;28;20290;-58
2021/08/04 03:34:38;;;;;;;4.10;2.33;;;17.20;99.90;;;;;;4975696;28;20181;-58
2021/08/04 03:37:04;;;;;;;2.70;2.50;;;17.10;99.90;;;;;;4975728;28;20177;-53
2021/08/04 03:39:30;;;;;;;2.50;2.23;;;16.90;99.90;;;;;;4975724;28;20204;-56
2021/08/04 03:41:55;;;;;;;3.20;2.27;;;16.80;99.90;;;;;;4974879;28;20200;-55
2021/08/04 03:44:21;;;;;;;2.83;2.33;;;16.60;99.90;;;;;;4975719;28;20260;-58
2021/08/04 03:46:47;;;;;;;2.50;2.30;;;16.50;99.90;;;;;;4975318;28;20169;-56
2021/08/04 03:49:16;;;;;;;3.60;2.47;;;16.50;99.90;;;;;;4974535;28;20648;-58
2021/08/04 03:51:42;;;;;;;2.87;2.30;;;16.50;99.90;;;;;;4975140;28;20433;-58
2021/08/04 03:54:08;;;;;;;4.80;2.30;;;16.50;99.90;;;;;;4975417;28;20426;-56
2021/08/04 03:56:33;;;;;;;4.60;2.17;;;16.70;99.90;;;;;;4975026;28;20182;-56
2021/08/04 03:59:00;;;;;;;2.60;2.40;;;16.70;99.90;;;;;;4983413;28;20679;-56
2021/08/04 04:01:26;;;;;;;4.77;2.60;;;16.70;99.90;;;;;;4994462;28;20191;-55
2021/08/04 04:03:51;;;;;;;4.33;2.70;;;16.70;99.90;;;;;;4994784;28;20412;-54
2021/08/04 04:06:17;;;;;;;4.37;3.00;;;16.60;99.90;;;;;;4994453;28;20233;-57
2021/08/04 04:08:43;;;;;;;5.07;3.17;;;16.50;99.90;;;;;;4995094;28;20179;-58
2021/08/04 04:11:10;;;;;;;2.70;2.30;;;16.40;99.90;;;;;;5020717;23;20216;-55
2021/08/04 04:13:35;;;;;;;2.90;2.47;;;16.30;99.90;;;;;;4993046;28;20436;-57
2021/08/04 04:16:01;;;;;;;2.30;2.10;;;16.30;99.90;;;;;;4994689;28;20755;-57
2021/08/04 04:18:27;;;;;;;2.60;2.40;;;16.40;99.90;;;;;;4994327;28;20276;-57
2021/08/04 04:20:52;;;;;;;2.30;2.10;;;16.50;99.90;;;;;;4994547;28;20168;-58
2021/08/04 04:23:18;;;;;;;2.53;2.33;;;16.60;99.90;;;;;;4994501;28;20266;-56
2021/08/04 04:25:43;;;;;;;4.20;2.60;;;16.50;99.90;;;;;;4994570;28;20161;-57
2021/08/04 04:28:09;;;;;;;2.67;1.90;;;16.40;99.90;;;;;;4993725;28;20668;-58
2021/08/04 04:30:35;;;;;;;3.27;2.57;;;16.40;99.90;;;;;;4994243;28;20210;-58
2021/08/04 04:33:01;;;;;;;3.10;2.10;;;16.50;99.90;;;;;;4993971;28;20225;-58
2021/08/04 04:35:26;;;;;;;2.40;2.10;;;16.60;99.90;;;;;;4994312;28;20183;-56
2021/08/04 04:37:52;;;;;;;5.23;2.43;;;16.60;99.90;;;;;;4992709;28;20225;-57
2021/08/04 04:40:17;;;;;;;4.60;2.83;;;16.60;99.90;;;;;;4993875;28;20569;-59
2021/08/04 04:42:43;;;;;;;3.30;2.23;;;16.70;99.90;;;;;;4992662;28;20199;-57
2021/08/04 04:45:09;;;;;;;2.60;2.40;;;16.60;99.90;;;;;;4994038;28;20697;-57
2021/08/04 04:47:35;;;;;;;3.50;2.60;;;16.70;99.90;;;;;;4993891;28;20171;-57
2021/08/04 04:50:00;;;;;;;3.90;2.30;;;16.70;99.90;;;;;;4993922;28;20417;-55
2021/08/04 04:52:26;;;;;;;3.33;3.03;;;16.80;99.90;;;;;;4994030;28;20191;-57
2021/08/04 04:54:52;;;;;;;4.20;2.57;;;16.90;99.90;;;;;;4993829;28;20172;-58
2021/08/04 04:57:17;;;;;;;2.67;2.30;;;17.00;99.90;;;;;;4993438;28;20635;-56
2021/08/04 04:59:43;;;;;;;3.40;2.67;;;17.00;99.90;;;;;;4994580;28;20200;-58
2021/08/04 05:02:08;;;;;;;3.20;2.27;;;16.90;99.90;;;;;;5000357;28;20684;-57
2021/08/04 05:04:34;;;;;;;2.90;2.60;;;16.90;99.90;;;;;;5000355;28;20629;-57
2021/08/04 05:06:59;;;;;;;3.50;2.80;;;17.00;99.90;;;;;;5000736;28;20194;-57
2021/08/04 05:09:25;;;;;;;2.73;2.30;;;17.10;99.90;;;;;;5001932;28;20182;-58
2021/08/04 05:11:50;;;;;;;3.13;2.53;;;17.20;99.90;;;;;;4999693;28;20322;-52
2021/08/04 05:14:16;;;;;;;3.10;2.80;;;17.30;99.90;;;;;;5000101;28;20171;-58
2021/08/04 05:16:42;;;;;;;2.93;2.63;;;17.40;99.90;;;;;;5000336;28;20173;-57
2021/08/04 05:19:07;;;;;;;3.30;2.17;;;17.50;99.90;;;;;;5000083;28;20649;-56
2021/08/04 05:21:33;;;;;;;4.60;2.40;;;17.50;99.90;;;;;;5000094;28;20188;-54
2021/08/04 05:23:58;;;;;;;2.77;2.47;;;17.60;99.90;;;;;;5000619;28;20164;-57
2021/08/04 05:26:24;;;;;;;2.77;2.47;;;17.60;99.90;;;;;;5000502;28;20219;-57
2021/08/04 05:28:52;;;;;;;2.63;2.20;;;17.70;99.90;;;;;;4999992;28;20179;-53
2021/08/04 05:31:18;;;;;;;2.83;2.53;;;17.70;99.90;;;;;;4999884;28;20189;-57
2021/08/04 05:33:44;;;;;;;2.73;2.47;;;17.90;99.90;;;;;;5000420;28;20449;-56
2021/08/04 05:36:10;;;;;;;3.27;1.83;;;18.00;99.90;;;;;;5000264;28;20404;-58
2021/08/04 05:38:35;;;;;;;2.70;2.43;;;18.00;99.90;;;;;;5000298;28;20459;-55
2021/08/04 05:41:01;;;;;;;2.40;2.20;;;18.10;99.90;;;;;;5000204;28;20165;-57
2021/08/04 05:43:27;;;;;;;3.30;2.23;;;18.20;99.90;;;;;;4999192;28;20173;-58
2021/08/04 05:45:52;;;;;;;2.03;1.93;;;18.20;99.90;;;;;;4999866;28;20244;-57
2021/08/04 05:48:18;;;;;;;2.63;2.43;;;18.40;99.90;;;;;;5000322;28;20626;-58
2021/08/04 05:50:44;;;;;;;2.73;2.53;;;18.40;99.90;;;;;;5000145;28;20175;-57
2021/08/04 05:53:09;;;;;;;2.17;1.97;;;18.50;99.90;;;;;;4999958;28;20192;-58
2021/08/04 05:55:35;;;;;;;3.20;2.00;;;18.50;99.90;;;;;;5000167;28;20223;-54
2021/08/04 05:58:01;;;;;;;4.70;2.20;;;18.50;99.90;;;;;;4999398;28;20587;-57
2021/08/04 06:00:26;;;;;;;3.30;2.70;;;18.40;99.90;;;;;;4999566;28;20165;-56
2021/08/04 06:02:52;;;;;;;2.60;2.40;;;18.40;99.90;;;;;;5000968;28;20188;-59
2021/08/04 06:05:18;;;;;;;2.07;1.87;;;18.50;99.90;;;;;;4999898;28;20168;-58
2021/08/04 06:07:43;;;;;;;3.00;2.30;;;18.40;99.90;;;;;;4999931;28;20553;-58
2021/08/04 06:10:09;;;;;;;2.83;2.40;;;18.40;99.90;;;;;;5000096;28;20256;-58
2021/08/04 06:12:35;;;;;;;2.43;2.23;;;18.30;99.90;;;;;;4996359;28;20215;-57
2021/08/04 06:15:01;;;;;;;2.27;2.07;;;18.40;99.90;;;;;;4996367;28;20741;-55
2021/08/04 06:17:26;;;;;;;2.90;2.30;;;18.60;99.90;;;;;;4996641;28;20169;-58
2021/08/04 06:19:52;;;;;;;2.37;2.03;;;18.70;99.90;;;;;;4996489;28;20666;-58
2021/08/04 06:22:17;;;;;;;5.13;2.50;;;18.80;99.90;;;;;;4996336;28;20272;-59
2021/08/04 06:24:43;;;;;;;3.20;2.20;;;18.80;99.90;;;;;;4996431;28;20169;-55
2021/08/04 06:27:09;;;;;;;2.50;2.10;;;18.90;99.90;;;;;;4996274;28;20165;-56
2021/08/04 06:29:34;;;;;;;2.40;2.10;;;18.80;99.90;;;;;;4995999;28;20168;-54
2021/08/04 06:32:00;;;;;;;2.83;2.40;;;18.80;99.90;;;;;;4996561;28;20566;-57
2021/08/04 06:34:25;;;;;;;2.73;2.53;;;18.80;99.90;;;;;;4996418;28;20169;-58
2021/08/04 06:36:51;;;;;;;2.33;2.13;;;18.80;99.90;;;;;;4996394;28;20183;-58
2021/08/04 06:39:17;;;;;;;5.40;2.30;;;18.80;99.90;;;;;;4996024;28;20231;-58
2021/08/04 06:41:42;;;;;;;2.27;1.93;;;19.00;99.90;;;;;;4996312;28;20188;-57
2021/08/04 06:44:08;;;;;;;4.27;2.27;;;19.00;99.90;;;;;;4995603;28;20165;-53
2021/08/04 06:46:35;;;;;;;2.50;2.30;;;18.90;99.90;;;;;;4995957;28;20548;-57
2021/08/04 06:49:03;;;;;;;2.87;2.13;;;19.00;99.90;;;;;;4994905;28;20172;-57
2021/08/04 06:51:29;;;;;;;3.33;2.73;;;19.10;99.90;;;;;;4996083;28;20854;-58
2021/08/04 06:53:57;;;;;;;2.67;2.03;;;19.30;99.90;;;;;;4996676;28;20408;-55
2021/08/04 06:56:23;;;;;;;3.60;2.63;;;19.30;99.90;;;;;;4995839;28;20439;-57
2021/08/04 06:58:49;;;;;;;4.03;2.20;;;19.30;99.90;;;;;;4995859;28;20474;-58
2021/08/04 07:01:15;;;;;;;2.13;1.93;;;19.20;99.90;;;;;;4995456;28;20400;-58
2021/08/04 07:03:41;;;;;;;2.07;1.87;;;19.00;99.90;;;;;;4996071;28;20688;-57
2021/08/04 07:06:09;;;;;;;3.07;2.23;;;18.90;99.90;;;;;;4995821;28;20165;-58
2021/08/04 07:08:35;;;;;;;2.50;2.07;;;18.90;99.90;;;;;;4998186;28;20179;-58
2021/08/04 07:11:01;;;;;;;2.83;2.20;;;19.20;99.90;;;;;;4995263;28;20454;-58
2021/08/04 07:13:26;;;;;;;2.40;2.10;;;19.30;99.90;;;;;;4995342;28;20420;-57
2021/08/04 07:15:52;;;;;;;2.17;1.97;;;19.50;99.90;;;;;;4990967;28;20165;-58
2021/08/04 07:18:18;;;;;;;2.40;2.20;;;19.70;99.90;;;;;;4995348;28;20189;-58
2021/08/04 07:20:44;;;;;;;2.17;2.00;;;19.90;99.90;;;;;;4995851;28;20200;-58
2021/08/04 07:23:10;;;;;;;2.20;2.00;;;19.80;99.90;;;;;;4994770;28;20459;-54
2021/08/04 07:25:36;;;;;;;4.03;2.40;;;19.50;99.90;;;;;;4995086;28;20169;-58
2021/08/04 07:28:01;;;;;;;3.27;2.50;;;19.60;99.90;;;;;;4993887;28;20422;-58
2021/08/04 07:30:27;;;;;;;2.57;2.37;;;19.50;99.90;;;;;;4994971;28;20633;-58
2021/08/04 07:32:53;;;;;;;2.60;2.40;;;19.50;99.90;;;;;;4995344;28;20193;-58
2021/08/04 07:35:19;;;;;;;2.80;2.50;;;19.40;99.90;;;;;;4995158;28;20248;-58
2021/08/04 07:37:45;;;;;;;2.10;1.90;;;19.50;99.90;;;;;;4994869;28;20242;-57
2021/08/04 07:40:12;;;;;;;2.43;2.13;;;19.50;99.90;;;;;;4994966;28;20412;-57
2021/08/04 07:42:37;;;;;;;2.20;2.00;;;19.60;99.90;;;;;;4995100;28;20424;-57
2021/08/04 07:45:04;;;;;;;2.03;1.87;;;19.70;99.90;;;;;;4995222;28;20435;-55
2021/08/04 07:47:30;;;;;;;2.77;1.93;;;19.80;99.90;;;;;;4995013;28;20543;-56
2021/08/04 07:49:55;;;;;;;2.20;2.00;;;19.60;99.90;;;;;;4994961;28;20404;-57
2021/08/04 07:52:21;;;;;;;2.93;1.93;;;19.70;99.90;;;;;;4995300;28;20188;-57
2021/08/04 07:54:47;;;;;;;3.23;2.40;;;19.60;99.90;;;;;;4995009;28;20173;-57
2021/08/04 07:57:13;;;;;;;3.60;1.93;;;19.80;99.90;;;;;;4995301;28;20203;-58
2021/08/04 07:59:38;;;;;;;2.87;2.30;;;20.00;99.90;;;;;;4994233;28;20523;-55
2021/08/04 08:02:04;;;;;;;2.40;2.00;;;20.50;99.90;;;;;;4994833;28;20192;-58
2021/08/04 08:04:33;;;;;;;2.30;1.90;;;20.30;99.90;;;;;;4995037;28;20527;-56
2021/08/04 08:07:00;;;;;;;2.53;2.00;;;20.20;99.90;;;;;;4993363;28;20183;-54
2021/08/04 08:09:26;;;;;;;2.03;1.93;;;20.30;99.90;;;;;;4994882;28;20466;-57
2021/08/04 08:11:55;;;;;;;6.93;1.97;;;20.30;99.90;;;;;;4994361;28;20447;-56
2021/08/04 08:14:20;;;;;;;2.50;2.30;;;20.50;99.90;;;;;;4994540;28;20409;-56
2021/08/04 08:16:46;;;;;;;2.27;2.00;;;21.10;99.90;;;;;;4994269;28;20979;-56
2021/08/04 08:19:12;;;;;;;2.40;2.20;;;21.20;99.90;;;;;;4994717;28;20192;-57
2021/08/04 08:21:37;;;;;;;2.20;2.00;;;21.30;99.90;;;;;;4994262;28;20649;-55
2021/08/04 08:24:03;;;;;;;2.70;2.07;;;21.10;99.90;;;;;;4993176;28;20169;-57
2021/08/04 08:26:29;;;;;;;2.97;2.20;;;20.90;99.90;;;;;;4994329;28;20529;-55
2021/08/04 08:28:54;;;;;;;3.20;2.47;;;20.60;99.90;;;;;;4993874;28;20700;-57
2021/08/04 08:31:20;;;;;;;2.60;2.13;;;20.80;99.90;;;;;;4993905;28;20211;-57
2021/08/04 08:33:46;;;;;;;2.70;2.50;;;20.90;99.90;;;;;;4994312;28;20533;-56
2021/08/04 08:36:11;;;;;;;2.30;1.83;;;20.90;99.90;;;;;;4994494;28;20161;-55
2021/08/04 08:38:37;;;;;;;3.07;2.50;;;20.90;99.90;;;;;;4993863;28;20207;-56
2021/08/04 08:41:06;;;;;;;2.47;1.70;;;20.40;99.90;;;;;;4994284;28;20164;-57
2021/08/04 08:43:32;;;;;;;1.83;1.73;;;20.60;99.90;;;;;;4993765;28;20172;-56
2021/08/04 08:45:59;;;;;;;2.47;2.20;;;20.70;99.90;;;;;;4993665;28;20411;-56
2021/08/04 08:48:25;;;;;;;2.20;2.00;;;20.90;99.90;;;;;;4994228;28;20404;-55
2021/08/04 08:50:50;;;;;;;2.43;2.23;;;21.00;99.90;;;;;;4994117;28;20947;-53
2021/08/04 08:53:18;;;;;;;3.83;1.97;;;21.10;99.90;;;;;;4993989;28;20503;-56
2021/08/04 08:55:45;;;;;;;2.47;1.90;;;21.40;99.90;;;;;;4993785;28;20408;-54
2021/08/04 08:58:10;;;;;;;2.60;2.20;;;21.50;99.90;;;;;;4993552;28;20451;-53
2021/08/04 09:00:36;;;;;;;2.53;1.93;;;21.70;99.90;;;;;;4993477;28;20917;-51
2021/08/04 09:03:02;;;;;;;2.50;2.30;;;21.80;99.90;;;;;;4994050;28;20185;-57
2021/08/04 09:05:28;;;;;;;2.40;2.07;;;21.90;99.90;;;;;;4994365;28;20168;-56
2021/08/04 09:07:53;;;;;;;2.53;2.33;;;22.20;99.90;;;;;;4993722;28;20165;-55
2021/08/04 09:10:34;;;;;;;2.33;1.90;;;22.00;99.90;;;;;;4996587;28;20210;-57
2021/08/04 09:13:05;;;;;;;2.50;2.07;;;22.00;99.90;;;;;;4994326;28;20275;-54
2021/08/04 09:15:40;;;;;;;3.13;2.00;;;21.70;99.90;;;;;;5009185;28;20419;-58
2021/08/04 09:18:15;;;;;;;2.30;2.10;;;21.80;99.90;;;;;;4993632;28;20450;-57
2021/08/04 09:20:46;;;;;;;2.20;1.70;;;21.80;99.90;;;;;;4993833;28;20383;-58
2021/08/04 09:23:14;;;;;;;2.77;2.00;;;22.00;99.90;;;;;;4993798;28;20959;-57
2021/08/04 09:25:39;;;;;;;1.90;1.80;;;21.40;99.90;;;;;;4993673;28;20403;-56
2021/08/04 09:28:07;;;;;;;3.73;2.00;;;21.30;99.90;;;;;;4993609;28;20563;-57
2021/08/04 09:30:35;;;;;;;2.70;2.50;;;21.70;99.90;;;;;;4993669;28;20629;-57
2021/08/04 09:33:11;;;;;;;2.50;1.80;;;21.80;99.90;;;;;;4993708;28;20438;-57
2021/08/04 09:35:51;;;;;;;2.43;1.90;;;21.40;99.90;;;;;;4993365;28;20416;-56
2021/08/04 09:38:19;;;;;;;2.93;2.27;;;20.90;99.90;;;;;;4993695;28;20454;-53
2021/08/04 09:40:45;;;;;;;2.60;2.27;;;21.10;99.90;;;;;;4993589;28;20816;-55
2021/08/04 09:43:23;;;;;;;4.30;2.40;;;21.40;99.90;;;;;;4992395;28;20913;-56
2021/08/04 09:45:49;;;;;;;2.70;2.50;;;21.50;99.90;;;;;;4973959;28;20470;-56
2021/08/04 09:48:16;;;;;;;2.70;2.50;;;21.90;99.90;;;;;;4976246;28;20496;-56
2021/08/04 09:50:47;;;;;;;3.30;2.57;;;22.20;99.90;;;;;;4977964;28;20256;-55
2021/08/04 09:53:34;;;;;;;3.13;2.33;;;22.30;99.90;;;;;;4977796;28;20425;-57
2021/08/04 09:56:03;;;;;;;3.13;2.47;;;22.20;99.90;;;;;;4977716;28;20392;-54
2021/08/04 09:58:29;;;;;;;3.17;2.87;;;21.60;99.90;;;;;;4975741;28;20461;-57
2021/08/04 10:00:55;;;;;;;3.30;2.20;;;21.30;99.90;;;;;;4977486;28;20412;-57
2021/08/04 10:03:20;;;;;;;3.57;2.43;;;21.30;99.90;;;;;;4977223;28;20185;-54
2021/08/04 10:05:46;;;;;;;3.07;2.50;;;21.40;99.90;;;;;;4992757;28;20168;-54
2021/08/04 10:08:13;;;;;;;4.10;2.70;;;21.40;99.90;;;;;;4996984;28;20255;-53
2021/08/04 10:10:39;;;;;;;3.00;2.67;;;21.40;99.90;;;;;;4996838;28;20165;-54
2021/08/04 10:13:07;;;;;;;2.40;2.17;;;21.40;99.90;;;;;;5011134;23;20570;-55
2021/08/04 10:15:41;;;;;;;3.90;2.50;;;21.60;99.90;;;;;;4995536;28;20634;-53
2021/08/04 10:18:18;;;;;;;3.33;2.67;;;21.30;99.90;;;;;;4996593;28;20874;-50
2021/08/04 10:20:45;;;;;;;3.17;2.50;;;21.30;99.90;;;;;;4996762;28;20400;-55
2021/08/04 10:23:19;;;;;;;3.43;2.80;;;21.40;99.90;;;;;;4996598;28;20431;-52
2021/08/04 10:25:45;;;;;;;3.50;2.70;;;21.40;99.90;;;;;;5016250;28;20399;-53
2021/08/04 10:28:12;;;;;;;2.53;2.33;;;21.30;99.90;;;;;;5015699;28;20779;-56
2021/08/04 10:30:38;;;;;;;3.37;2.70;;;21.40;99.90;;;;;;5015814;28;20410;-55
2021/08/04 10:33:07;;;;;;;5.90;2.70;;;21.10;99.90;;;;;;5015741;28;20526;-53
2021/08/04 10:35:40;;;;;;;5.07;2.83;;;21.40;99.90;;;;;;5015659;28;20214;-54
2021/08/04 10:38:17;;;;;;;2.63;2.37;;;21.90;99.90;;;;;;5015318;28;20784;-55
2021/08/04 10:40:43;;;;;;;3.40;2.40;;;22.50;99.90;;;;;;5015068;28;20826;-55
2021/08/04 10:43:09;;;;;;;4.30;2.40;;;22.70;99.90;;;;;;5001407;28;20511;-55
2021/08/04 10:45:35;;;;;;;4.37;2.40;;;22.90;99.90;;;;;;4995336;28;20400;-56
2021/08/04 10:48:25;;;;;;;3.60;2.50;;;22.60;99.90;;;;;;4995893;28;20471;-56
2021/08/04 10:51:10;;;;;;;5.30;3.10;;;22.50;99.90;;;;;;4996299;28;20455;-56
2021/08/04 10:54:02;;;;;;;3.83;3.07;;;22.00;99.90;;;;;;4995873;28;20498;-56
2021/08/04 10:56:37;;;;;;;3.73;2.53;;;22.40;99.90;;;;;;4995859;28;20412;-56
2021/08/04 10:59:08;;;;;;;4.70;2.70;;;22.90;99.90;;;;;;4995674;28;20477;-54
2021/08/04 11:01:34;;;;;;;2.90;2.60;;;23.50;99.90;;;;;;5011191;28;20413;-55
2021/08/04 11:04:00;;;;;;;5.03;2.50;;;23.80;99.50;;;;;;5015663;28;20446;-55
2021/08/04 11:06:26;;;;;;;4.60;2.90;;;23.90;99.90;;;;;;5015502;28;20447;-58
2021/08/04 11:09:19;;;;;;;3.70;2.77;;;23.60;99.60;;;;;;5003616;28;20408;-57
2021/08/04 11:11:54;;;;;;;2.20;2.00;;;23.60;99.90;;;;;;4995381;28;20192;-56
2021/08/04 11:14:48;;;;;;;2.70;2.30;;;23.90;99.90;;;;;;4995925;28;20395;-57
2021/08/04 11:17:32;;;;;;;3.83;2.83;;;23.90;99.90;;;;;;4993844;28;20434;-57
2021/08/04 11:19:58;;;;;;;2.77;2.30;;;23.70;99.40;;;;;;4995833;28;20454;-56
2021/08/04 11:22:31;;;;;;;3.50;2.20;;;24.20;99.80;;;;;;4995458;28;20467;-57
2021/08/04 11:25:04;;;;;;;4.03;2.83;;;24.20;99.10;;;;;;4993365;28;20232;-57
2021/08/04 11:27:37;;;;;;;2.30;2.10;;;24.50;98.30;;;;;;4994221;28;20450;-57
2021/08/04 11:30:03;;;;;;;2.97;2.27;;;24.60;99.90;;;;;;4994713;28;20501;-56
2021/08/04 11:32:31;;;;;;;2.70;2.50;;;24.80;97.90;;;;;;4994841;28;20428;-57
2021/08/04 11:34:58;;;;;;;2.50;2.13;;;24.90;98.10;;;;;;4995389;28;20431;-51
2021/08/04 11:37:25;;;;;;;3.67;2.33;;;24.50;97.80;;;;;;4994054;28;20459;-57
2021/08/04 11:40:00;;;;;;;2.20;2.00;;;24.30;98.20;;;;;;4995270;28;20570;-55
2021/08/04 11:42:26;;;;;;;2.30;2.10;;;24.50;98.90;;;;;;4994955;28;20432;-56
2021/08/04 11:44:52;;;;;;;1.90;1.80;;;24.80;97.80;;;;;;4994938;28;20408;-53
2021/08/04 11:47:19;;;;;;;4.70;2.30;;;24.50;98.80;;;;;;4994728;28;20411;-58
2021/08/04 11:49:49;;;;;;;2.00;1.80;;;24.50;97.80;;;;;;4995025;28;20231;-56
2021/08/04 11:52:24;;;;;;;2.90;2.20;;;24.60;97.40;;;;;;4995060;28;20447;-54
2021/08/04 11:55:02;;;;;;;1.80;1.70;;;24.70;97.40;;;;;;4994589;28;20498;-56
2021/08/04 11:57:37;;;;;;;2.77;2.33;;;24.90;96.70;;;;;;4994577;28;20490;-58
2021/08/04 12:00:21;;;;;;;2.63;2.00;;;25.00;97.80;;;;;;4994921;28;20442;-53
2021/08/04 12:02:47;;;;;;;1.60;1.37;;;25.30;96.30;;;;;;4994450;28;20420;-56
2021/08/04 12:05:15;;;;;;;1.93;1.77;;;25.70;96.70;;;;;;4994521;28;20408;-55
2021/08/04 12:07:44;;;;;;;1.93;1.83;;;25.60;95.70;;;;;;4994419;28;20650;-58
2021/08/04 12:10:19;;;;;;;1.90;1.50;;;26.20;96.50;;;;;;4993757;28;20482;-55
2021/08/04 12:12:50;;;;;;;1.70;1.60;;;25.80;95.30;;;;;;4994238;28;20438;-58
2021/08/04 12:15:22;;;;;;;2.93;1.60;;;25.80;95.30;;;;;;4994820;28;20408;-55
2021/08/04 12:17:59;;;;;;;2.50;1.90;;;25.00;95.90;;;;;;4993879;28;20381;-55
2021/08/04 12:20:27;;;;;;;1.87;1.57;;;24.90;97.20;;;;;;4994375;28;20392;-55
2021/08/04 12:22:58;;;;;;;2.33;2.03;;;25.30;98.30;;;;;;4994449;28;20522;-58
2021/08/04 12:25:25;;;;;;;3.10;1.50;;;25.20;97.50;;;;;;4994335;28;20746;-52
2021/08/04 12:27:52;;;;;;;1.97;1.83;;;25.50;96.40;;;;;;4994436;28;20503;-55
2021/08/04 12:30:24;;;;;;;1.77;1.50;;;25.50;95.60;;;;;;4994013;28;20412;-55
2021/08/04 12:33:00;;;;;;;2.50;2.13;;;25.40;95.90;;;;;;4994121;28;20427;-52
2021/08/04 12:35:41;;;;;;;3.13;2.00;;;25.40;95.80;;;;;;4994085;28;20743;-57
2021/08/04 12:38:10;;;;;;;3.80;1.83;;;25.10;96.00;;;;;;4993760;28;20431;-57
2021/08/04 12:40:37;;;;;;;2.13;1.63;;;24.50;96.70;;;;;;4994178;28;20408;-55
2021/08/04 12:43:03;;;;;;;2.00;1.80;;;24.50;97.20;;;;;;4994170;28;20439;-54
2021/08/04 12:45:29;;;;;;;2.80;1.87;;;24.50;97.30;;;;;;4994199;28;20410;-54
2021/08/04 12:47:56;;;;;;;2.33;1.57;;;24.80;96.60;;;;;;4993966;28;20406;-58
2021/08/04 12:50:25;;;;;;;2.30;1.83;;;24.50;97.40;;;;;;4994178;28;20466;-55
2021/08/04 12:52:50;;;;;;;1.70;1.60;;;24.20;97.10;;;;;;4993728;28;20796;-53